createdAt,value
2018-12-12T00:00:55.150Z,19.10
2018-12-12T00:04:08.507Z,18.95
2018-12-12T00:07:23.745Z,19.35
2018-12-12T00:10:30.807Z,20.80
2018-12-12T00:13:38.300Z,20.27
2018-12-12T00:16:51.312Z,19.60
2018-12-12T00:19:59.971Z,21.73
2018-12-12T00:23:07.154Z,19.93
2018-12-12T00:26:15.737Z,20.48
2018-12-12T00:29:24.496Z,20.20
2018-12-12T00:32:33.672Z,19.42
2018-12-12T00:35:43.015Z,20.85
2018-12-12T00:38:50.380Z,20.00
2018-12-12T00:41:58.441Z,18.40
2018-12-12T00:45:07.608Z,18.80
2018-12-12T00:48:17.649Z,19.13
2018-12-12T00:51:24.838Z,20.85
2018-12-12T00:54:33.417Z,18.85
2018-12-12T00:57:42.661Z,19.12
2018-12-12T01:00:50.072Z,20.20
2018-12-12T01:03:58.000Z,17.63
2018-12-12T01:07:05.637Z,19.75
2018-12-12T01:10:13.280Z,19.80
2018-12-12T01:13:21.382Z,20.32
2018-12-12T01:16:28.393Z,20.05
2018-12-12T01:19:35.744Z,21.75
2018-12-12T01:22:44.092Z,19.30
2018-12-12T01:25:52.820Z,19.45
2018-12-12T01:29:00.381Z,19.52
2018-12-12T01:32:09.041Z,19.23
2018-12-12T01:35:17.499Z,17.62
2018-12-12T01:38:24.889Z,19.27
2018-12-12T01:41:32.204Z,18.85
2018-12-12T01:44:39.250Z,19.80
2018-12-12T01:47:47.112Z,20.10
2018-12-12T01:50:55.107Z,19.15
2018-12-12T01:54:02.864Z,18.30
2018-12-12T01:57:10.380Z,20.37
2018-12-12T02:00:18.155Z,20.80
2018-12-12T02:03:25.424Z,19.00
2018-12-12T02:06:32.948Z,19.97
2018-12-12T02:09:40.577Z,22.67
2018-12-12T02:13:02.966Z,23.27
2018-12-12T02:16:11.746Z,23.20
2018-12-12T02:19:19.498Z,22.87
2018-12-12T02:22:26.808Z,23.23
2018-12-12T02:25:35.318Z,22.58
2018-12-12T02:28:43.764Z,23.80
2018-12-12T02:31:50.893Z,20.83
2018-12-12T02:34:58.415Z,21.45
2018-12-12T02:38:06.062Z,23.92
2018-12-12T02:41:13.899Z,21.80
2018-12-12T02:44:21.928Z,21.42
2018-12-12T02:47:29.772Z,19.98
2018-12-12T02:50:37.293Z,21.20
2018-12-12T02:53:44.539Z,21.37
2018-12-12T02:56:52.503Z,23.02
2018-12-12T03:00:00.510Z,22.55
2018-12-12T03:03:08.279Z,23.40
2018-12-12T03:06:16.194Z,20.88
2018-12-12T03:09:25.603Z,21.52
2018-12-12T03:12:33.224Z,20.25
2018-12-12T03:15:41.641Z,22.20
2018-12-12T03:18:49.550Z,20.20
2018-12-12T03:21:58.301Z,21.20
2018-12-12T03:25:06.399Z,21.62
2018-12-12T03:28:14.002Z,21.30
2018-12-12T03:31:21.556Z,20.30
2018-12-12T03:34:29.885Z,19.93
2018-12-12T03:37:37.904Z,21.85
2018-12-12T03:40:46.417Z,23.32
2018-12-12T03:43:54.286Z,21.75
2018-12-12T03:50:21.668Z,21.03
2018-12-12T03:53:29.592Z,21.68
2018-12-12T03:56:37.038Z,20.97
2018-12-12T03:59:44.478Z,20.70
2018-12-12T04:02:52.277Z,20.33
2018-12-12T04:05:59.348Z,18.43
2018-12-12T04:09:09.942Z,22.40
2018-12-12T04:12:17.363Z,19.20
2018-12-12T04:15:27.025Z,21.02
2018-12-12T04:18:45.429Z,22.00
2018-12-12T04:21:53.034Z,20.45
2018-12-12T04:25:10.837Z,20.20
2018-12-12T04:28:18.389Z,19.95
2018-12-12T04:31:25.742Z,19.53
2018-12-12T04:34:32.590Z,21.65
2018-12-12T04:37:40.539Z,20.80
2018-12-12T04:40:48.350Z,19.87
2018-12-12T04:43:54.755Z,19.87
2018-12-12T04:47:02.702Z,19.62
2018-12-12T04:50:10.256Z,19.03
2018-12-12T04:53:17.076Z,19.90
2018-12-12T04:56:24.722Z,20.17
2018-12-12T04:59:36.931Z,18.55
2018-12-12T05:02:55.680Z,18.80
2018-12-12T05:06:03.759Z,27.00
2018-12-12T05:09:10.331Z,20.40
2018-12-12T05:12:17.015Z,18.37
2018-12-12T05:15:24.005Z,20.23
2018-12-12T05:18:31.691Z,19.37
2018-12-12T05:21:40.359Z,19.52
2018-12-12T05:24:49.622Z,22.10
2018-12-12T05:27:57.302Z,21.12
2018-12-12T05:31:05.238Z,19.52
2018-12-12T05:34:13.142Z,22.45
2018-12-12T05:37:21.082Z,19.23
2018-12-12T05:40:29.579Z,22.65
2018-12-12T05:43:37.170Z,19.45
2018-12-12T05:46:47.549Z,21.35
2018-12-12T05:49:57.806Z,19.30
2018-12-12T05:53:04.825Z,20.75
2018-12-12T05:56:14.222Z,19.55
2018-12-12T05:59:21.169Z,22.05
2018-12-12T06:02:29.189Z,21.05
2018-12-12T06:05:36.029Z,21.55
2018-12-12T06:08:43.665Z,20.52
2018-12-12T06:11:52.482Z,19.85
2018-12-12T06:14:59.092Z,19.55
2018-12-12T06:18:07.124Z,20.43
2018-12-12T06:21:14.670Z,21.70
2018-12-12T06:24:23.170Z,20.57
2018-12-12T06:27:31.936Z,23.53
2018-12-12T06:30:40.420Z,21.25
2018-12-12T06:33:48.139Z,20.25
2018-12-12T06:36:54.350Z,21.20
2018-12-12T06:40:01.308Z,19.67
2018-12-12T06:43:09.346Z,22.05
2018-12-12T06:46:17.152Z,18.65
2018-12-12T06:49:24.708Z,20.05
2018-12-12T06:52:31.374Z,21.60
2018-12-12T06:55:38.087Z,19.67
2018-12-12T06:58:45.039Z,19.17
2018-12-12T07:01:51.738Z,22.27
2018-12-12T07:04:59.034Z,21.07
2018-12-12T07:08:05.066Z,23.38
2018-12-12T07:11:10.942Z,21.00
2018-12-12T07:14:16.942Z,27.95
2018-12-12T07:17:22.614Z,23.05
2018-12-12T07:20:28.569Z,20.60
2018-12-12T07:23:35.600Z,21.23
2018-12-12T07:26:41.524Z,24.07
2018-12-12T07:29:47.465Z,22.67
2018-12-12T07:32:53.876Z,21.93
2018-12-12T07:35:59.865Z,23.03
2018-12-12T07:39:08.748Z,19.80
2018-12-12T07:42:14.669Z,20.90
2018-12-12T07:45:39.795Z,19.62
2018-12-12T07:48:52.517Z,22.17
2018-12-12T07:52:17.881Z,23.87
2018-12-12T07:55:23.818Z,23.35
2018-12-12T07:58:29.775Z,20.95
2018-12-12T08:01:36.188Z,25.80
2018-12-12T08:04:42.235Z,23.18
2018-12-12T08:07:48.393Z,24.87
2018-12-12T08:10:54.887Z,24.40
2018-12-12T08:14:00.567Z,22.37
2018-12-12T08:17:06.505Z,25.80
2018-12-12T08:20:12.607Z,25.25
2018-12-12T08:23:19.164Z,22.00
2018-12-12T08:26:24.871Z,24.02
2018-12-12T08:29:30.816Z,24.00
2018-12-12T08:32:38.274Z,25.77
2018-12-12T08:35:44.204Z,21.80
2018-12-12T08:38:50.185Z,23.30
2018-12-12T08:41:58.263Z,25.57
2018-12-12T08:45:04.869Z,22.98
2018-12-12T08:48:11.561Z,20.23
2018-12-12T08:51:17.478Z,22.60
2018-12-12T08:54:23.227Z,22.53
2018-12-12T08:57:29.371Z,43.80
2018-12-12T09:00:35.790Z,19.48
2018-12-12T09:03:41.420Z,19.80
2018-12-12T09:06:47.147Z,21.97
2018-12-12T09:09:53.592Z,19.15
2018-12-12T09:12:59.562Z,19.45
2018-12-12T09:16:05.957Z,20.15
2018-12-12T09:19:11.754Z,22.53
2018-12-12T09:22:17.230Z,24.53
2018-12-12T09:25:23.120Z,18.90
2018-12-12T09:28:29.545Z,20.40
2018-12-12T09:31:37.691Z,20.32
2018-12-12T09:34:45.316Z,19.27
2018-12-12T09:37:51.302Z,20.62
2018-12-12T09:40:57.400Z,21.33
2018-12-12T09:44:03.367Z,19.57
2018-12-12T09:47:09.391Z,20.75
2018-12-12T09:50:15.766Z,20.55
2018-12-12T09:53:23.128Z,22.37
2018-12-12T09:56:30.701Z,21.80
2018-12-12T09:59:36.647Z,21.02
2018-12-12T10:02:42.730Z,21.05
2018-12-12T10:05:48.494Z,23.45
2018-12-12T10:08:54.495Z,19.67
2018-12-12T10:12:00.225Z,22.53
2018-12-12T10:15:07.402Z,20.50
2018-12-12T10:18:13.384Z,22.98
2018-12-12T10:21:19.309Z,19.70
2018-12-12T10:24:25.798Z,18.82
2018-12-12T10:27:32.538Z,19.48
2018-12-12T10:30:38.633Z,19.00
2018-12-12T10:33:44.665Z,20.20
2018-12-12T10:42:15.061Z,22.30
2018-12-12T10:45:20.987Z,20.50
2018-12-12T10:48:26.960Z,21.05
2018-12-12T10:51:34.322Z,20.55
2018-12-12T10:54:40.652Z,21.80
2018-12-12T10:57:46.348Z,21.95
2018-12-12T11:00:57.572Z,19.55
2018-12-12T11:04:04.249Z,23.52
2018-12-12T11:07:09.981Z,24.83
2018-12-12T11:10:16.293Z,21.93
2018-12-12T11:13:22.298Z,20.97
2018-12-12T11:16:28.753Z,23.05
2018-12-12T11:19:34.665Z,20.82
2018-12-12T11:22:40.632Z,22.27
2018-12-12T11:25:46.679Z,20.40
2018-12-12T11:28:52.687Z,22.87
2018-12-12T11:31:58.356Z,21.93
2018-12-12T11:35:04.826Z,20.77
2018-12-12T11:38:10.703Z,23.70
2018-12-12T11:41:16.672Z,22.00
2018-12-12T11:44:22.895Z,18.65
2018-12-12T11:47:29.131Z,18.50
2018-12-12T11:50:35.129Z,20.20
2018-12-12T11:53:40.796Z,20.63
2018-12-12T11:56:46.793Z,20.70
2018-12-12T11:59:52.502Z,19.30
2018-12-12T12:02:58.195Z,20.07
2018-12-12T12:06:03.942Z,21.82
2018-12-12T12:09:10.997Z,21.13
2018-12-12T12:12:16.736Z,24.23
2018-12-12T12:15:24.171Z,24.25
2018-12-12T12:18:31.136Z,21.85
2018-12-12T12:21:37.045Z,21.47
2018-12-12T12:24:42.697Z,22.30
2018-12-12T12:27:48.308Z,23.02
2018-12-12T12:30:54.279Z,21.52
2018-12-12T12:34:03.242Z,22.10
2018-12-12T12:37:08.549Z,21.87
2018-12-12T12:40:14.924Z,22.98
2018-12-12T12:43:20.644Z,26.00
2018-12-12T12:46:26.866Z,24.75
2018-12-12T12:49:32.815Z,24.90
2018-12-12T12:52:38.784Z,24.05
2018-12-12T12:55:44.738Z,26.57
2018-12-12T12:58:50.388Z,26.82
2018-12-12T13:01:56.359Z,25.68
2018-12-12T13:05:03.318Z,25.12
2018-12-12T13:08:09.024Z,23.33
2018-12-12T13:11:15.029Z,21.10
2018-12-12T13:14:21.304Z,24.63
2018-12-12T13:17:27.339Z,23.10
2018-12-12T13:20:33.403Z,29.32
2018-12-12T13:23:39.114Z,28.00
2018-12-12T13:26:45.575Z,28.62
2018-12-12T13:29:51.604Z,23.30
2018-12-12T13:32:57.297Z,24.57
2018-12-12T13:36:04.602Z,25.37
2018-12-12T13:39:10.545Z,25.62
2018-12-12T13:42:16.652Z,21.93
2018-12-12T13:45:22.935Z,22.90
2018-12-12T13:48:29.398Z,24.10
2018-12-12T13:51:35.063Z,23.38
2018-12-12T13:54:40.993Z,27.37
2018-12-12T13:57:46.687Z,23.92
2018-12-12T14:00:53.699Z,24.82
2018-12-12T14:03:59.604Z,24.90
2018-12-12T14:07:05.713Z,22.80
2018-12-12T14:10:12.171Z,22.20
2018-12-12T14:13:17.895Z,23.50
2018-12-12T14:16:23.860Z,25.30
2018-12-12T14:19:31.120Z,26.30
2018-12-12T14:22:37.089Z,27.40
2018-12-12T14:25:43.018Z,22.13
2018-12-12T14:28:52.972Z,22.93
2018-12-12T14:31:59.089Z,23.10
2018-12-12T14:35:05.976Z,24.92
2018-12-12T14:38:12.098Z,23.50
2018-12-12T14:41:17.824Z,23.42
2018-12-12T14:44:23.709Z,22.40
2018-12-12T14:47:30.285Z,25.90
2018-12-12T14:50:36.227Z,26.37
2018-12-12T14:53:41.919Z,29.48
2018-12-12T14:56:47.868Z,25.85
2018-12-12T14:59:53.821Z,27.03
2018-12-12T15:02:59.463Z,24.60
2018-12-12T15:06:05.861Z,23.43
2018-12-12T15:09:11.796Z,24.07
2018-12-12T15:12:18.910Z,24.77
2018-12-12T15:15:25.545Z,22.30
2018-12-12T15:18:33.623Z,22.73
2018-12-12T15:21:39.864Z,25.80
2018-12-12T15:24:45.793Z,23.52
2018-12-12T15:27:51.901Z,28.47
2018-12-12T15:30:57.499Z,24.50
2018-12-12T15:34:03.122Z,22.82
2018-12-12T15:37:09.055Z,25.17
2018-12-12T15:40:14.943Z,26.50
2018-12-12T15:43:20.684Z,32.63
2018-12-12T15:46:26.273Z,27.40
2018-12-12T15:49:32.275Z,23.60
2018-12-12T15:52:38.167Z,22.07
2018-12-12T15:55:43.771Z,26.57
2018-12-12T15:58:49.743Z,25.70
2018-12-12T16:01:55.370Z,25.88
2018-12-12T16:05:01.311Z,25.80
2018-12-12T16:08:07.895Z,23.83
2018-12-12T16:11:14.771Z,26.82
2018-12-12T16:14:21.291Z,22.93
2018-12-12T16:17:27.368Z,28.05
2018-12-12T16:20:34.842Z,27.30
2018-12-12T16:23:42.464Z,25.43
2018-12-12T16:26:48.789Z,25.52
2018-12-12T16:30:02.961Z,25.63
2018-12-12T16:33:09.260Z,26.57
2018-12-12T16:36:16.134Z,26.77
2018-12-12T16:39:24.507Z,23.95
2018-12-12T16:42:31.893Z,25.72
2018-12-12T16:45:40.451Z,25.30
2018-12-12T16:48:46.791Z,24.45
2018-12-12T16:51:52.944Z,25.85
2018-12-12T16:54:59.845Z,24.45
2018-12-12T16:58:05.899Z,27.07
2018-12-12T17:01:12.399Z,27.10
2018-12-12T17:04:19.188Z,25.20
2018-12-12T17:07:25.708Z,27.20
2018-12-12T17:10:33.715Z,22.85
2018-12-12T17:13:40.140Z,24.20
2018-12-12T17:16:46.868Z,24.87
2018-12-12T17:19:54.081Z,26.12
2018-12-12T17:23:02.387Z,28.53
2018-12-12T17:26:09.175Z,26.85
2018-12-12T17:29:15.258Z,27.32
2018-12-12T17:32:21.423Z,28.25
2018-12-12T17:35:27.027Z,22.67
2018-12-12T17:38:33.237Z,25.23
2018-12-12T17:41:39.571Z,25.60
2018-12-12T17:44:45.454Z,28.30
2018-12-12T17:47:51.207Z,26.47
2018-12-12T17:50:56.758Z,25.50
2018-12-12T17:54:02.641Z,23.87
2018-12-12T17:57:09.287Z,25.17
2018-12-12T18:00:15.973Z,24.65
2018-12-12T18:03:23.588Z,26.02
2018-12-12T18:06:53.621Z,26.75
2018-12-12T18:09:59.545Z,23.73
2018-12-12T18:13:05.709Z,25.25
2018-12-12T18:16:12.970Z,26.37
2018-12-12T18:19:18.583Z,27.15
2018-12-12T18:22:24.465Z,27.45
2018-12-12T18:25:32.060Z,26.10
2018-12-12T18:28:38.037Z,25.17
2018-12-12T18:31:43.918Z,24.43
2018-12-12T18:34:55.259Z,22.30
2018-12-12T18:38:01.129Z,24.12
2018-12-12T18:41:07.105Z,28.40
2018-12-12T18:44:14.689Z,27.22
2018-12-12T18:47:20.908Z,26.93
2018-12-12T18:50:26.518Z,24.02
2018-12-12T18:53:53.940Z,28.40
2018-12-12T18:57:01.620Z,24.40
2018-12-12T19:00:08.082Z,28.62
2018-12-12T19:03:14.948Z,25.35
2018-12-12T19:06:20.870Z,24.72
2018-12-12T19:09:26.752Z,28.32
2018-12-12T19:12:32.639Z,27.75
2018-12-12T19:15:38.499Z,24.47
2018-12-12T19:18:44.359Z,27.27
2018-12-12T19:21:50.007Z,29.42
2018-12-12T19:24:55.878Z,26.13
2018-12-12T19:28:01.458Z,26.60
2018-12-12T19:31:07.060Z,26.80
2018-12-12T19:34:12.939Z,26.07
2018-12-12T19:37:18.997Z,28.05
2018-12-12T19:40:25.056Z,27.50
2018-12-12T19:43:30.967Z,28.12
2018-12-12T19:46:36.851Z,28.55
2018-12-12T19:49:53.869Z,30.30
2018-12-12T19:52:59.714Z,29.33
2018-12-12T19:56:05.373Z,33.80
2018-12-12T19:59:11.147Z,27.93
2018-12-12T20:02:17.273Z,27.00
2018-12-12T20:05:23.195Z,31.93
2018-12-12T20:08:30.737Z,30.57
2018-12-12T20:11:37.080Z,30.05
2018-12-12T20:14:42.692Z,33.85
2018-12-12T20:17:48.391Z,33.05
2018-12-12T20:20:54.029Z,25.68
2018-12-12T20:23:59.984Z,28.60
2018-12-12T20:27:06.570Z,29.27
2018-12-12T20:30:12.527Z,27.58
2018-12-12T20:33:18.509Z,30.00
2018-12-12T20:36:24.623Z,29.67
2018-12-12T20:39:31.034Z,28.57
2018-12-12T20:42:37.029Z,28.50
2018-12-12T20:45:42.925Z,32.25
2018-12-12T20:48:48.901Z,27.65
2018-12-12T20:51:54.774Z,28.23
2018-12-12T20:55:00.687Z,30.70
2018-12-12T20:58:06.352Z,28.00
2018-12-12T21:01:11.966Z,30.80
2018-12-12T21:04:17.885Z,25.77
2018-12-12T21:07:25.081Z,25.23
2018-12-12T21:10:31.421Z,29.18
2018-12-12T21:13:38.104Z,29.52
2018-12-12T21:16:43.760Z,28.67
2018-12-12T21:19:49.373Z,26.47
2018-12-12T21:22:56.981Z,28.80
2018-12-12T21:26:03.379Z,31.05
2018-12-12T21:29:09.260Z,29.82
2018-12-12T21:32:15.214Z,31.10
2018-12-12T21:35:20.806Z,29.85
2018-12-12T21:38:26.698Z,30.80
2018-12-12T21:41:32.275Z,28.57
2018-12-12T21:44:38.186Z,27.10
2018-12-12T21:47:43.899Z,27.23
2018-12-12T21:50:49.839Z,29.00
2018-12-12T21:53:56.016Z,25.88
2018-12-12T21:57:01.904Z,33.33
2018-12-12T22:00:11.760Z,28.25
2018-12-12T22:03:17.382Z,28.37
2018-12-12T22:06:23.796Z,29.70
2018-12-12T22:09:29.656Z,28.75
2018-12-12T22:12:35.678Z,26.70
2018-12-12T22:15:41.547Z,28.13
2018-12-12T22:18:47.572Z,28.65
2018-12-12T22:21:53.453Z,24.92
2018-12-12T22:24:59.336Z,26.35
2018-12-12T22:28:05.201Z,29.10
2018-12-12T22:31:11.101Z,29.45
2018-12-12T22:34:16.708Z,27.58
2018-12-12T22:37:22.280Z,29.85
2018-12-12T22:40:28.608Z,25.50
2018-12-12T22:43:34.472Z,26.90
2018-12-12T22:46:40.612Z,31.93
2018-12-12T22:49:46.223Z,30.12
2018-12-12T22:52:52.067Z,29.07
2018-12-12T22:55:57.667Z,28.60
2018-12-12T22:59:03.694Z,28.83
2018-12-12T23:02:09.265Z,25.80
2018-12-12T23:05:14.872Z,28.85
2018-12-12T23:08:20.802Z,27.58
2018-12-12T23:11:26.421Z,29.50
2018-12-12T23:14:32.049Z,30.92
2018-12-12T23:17:37.929Z,28.45
2018-12-12T23:20:43.959Z,29.35
2018-12-12T23:23:56.558Z,29.95
2018-12-12T23:27:02.194Z,32.13
2018-12-12T23:30:09.611Z,30.53
2018-12-12T23:33:16.291Z,30.25
2018-12-12T23:36:26.887Z,29.67
2018-12-12T23:39:29.876Z,34.18
2018-12-12T23:42:35.733Z,35.40
2018-12-12T23:45:41.373Z,34.78
2018-12-12T23:48:46.986Z,33.05
2018-12-12T23:51:53.336Z,29.92
2018-12-12T23:54:59.335Z,29.20
2018-12-12T23:58:05.220Z,29.32
